Time;durP1;ratioP1;P1;durP2;ratioP2;P2;SDS_P1;SDS_P2;PMS_P1;PMS_P2;Temp;Humidity;BMP_temperature;BMP_pressure;BME280_temperature;BME280_humidity;BME280_pressure;Samples;Min_cycle;Max_cycle;Signal;HPM_P1;HPM_P2
2021/12/31 00:01:21;;;;;;;168.70;39.70;;;;;;;2.22;100.00;98640.88;5104448;28;20020;-74
2021/12/31 00:03:48;;;;;;;130.00;34.22;;;;;;;2.32;100.00;98625.78;5092870;28;20027;-75
2021/12/31 00:06:14;;;;;;;240.73;41.17;;;;;;;2.37;100.00;98639.44;5092231;28;20537;-74
2021/12/31 00:08:39;;;;;;;165.63;34.65;;;;;;;2.44;100.00;98650.16;5092051;28;20115;-76
2021/12/31 00:11:05;;;;;;;260.67;40.55;;;;;;;2.40;100.00;98641.69;5090870;28;20461;-74
2021/12/31 00:13:33;;;;;;;101.85;30.85;;;;;;;2.34;100.00;98639.88;5090654;28;20028;-75
2021/12/31 00:15:58;;;;;;;206.77;36.30;;;;;;;2.28;100.00;98650.75;5090578;28;20040;-73
2021/12/31 00:18:24;;;;;;;78.45;30.30;;;;;;;2.26;100.00;98642.88;5090357;28;20116;-74
2021/12/31 00:20:49;;;;;;;96.28;31.63;;;;;;;2.14;100.00;98645.50;5091593;28;20461;-74
2021/12/31 00:23:17;;;;;;;92.80;33.03;;;;;;;2.14;100.00;98644.69;5091790;28;20024;-74
2021/12/31 00:25:43;;;;;;;151.57;36.05;;;;;;;2.09;100.00;98652.63;5091940;28;20028;-74
2021/12/31 00:28:10;;;;;;;153.35;34.47;;;;;;;2.24;100.00;98654.94;5095139;28;20503;-82
2021/12/31 00:30:37;;;;;;;103.03;31.85;;;;;;;2.27;100.00;98659.91;5093364;28;20028;-75
2021/12/31 00:33:04;;;;;;;248.80;42.20;;;;;;;2.11;100.00;98651.34;5091496;28;20035;-74
2021/12/31 00:35:32;;;;;;;140.18;32.58;;;;;;;2.12;100.00;98654.88;5091521;28;20041;-74
2021/12/31 00:37:58;;;;;;;98.10;33.83;;;;;;;2.08;100.00;98656.38;5091245;28;20036;-74
2021/12/31 00:40:24;;;;;;;100.32;33.50;;;;;;;1.96;100.00;98653.59;5091488;28;20036;-74
2021/12/31 00:42:50;;;;;;;92.18;32.30;;;;;;;1.88;100.00;98661.94;5091194;28;20381;-73
2021/12/31 00:45:19;;;;;;;157.50;37.42;;;;;;;1.86;100.00;98657.84;5091915;28;20082;-73
2021/12/31 00:47:45;;;;;;;140.65;38.47;;;;;;;1.84;100.00;98659.94;5089740;28;20052;-74
2021/12/31 00:50:12;;;;;;;126.93;35.78;;;;;;;1.93;100.00;98669.38;5090419;28;20511;-74
2021/12/31 00:52:38;;;;;;;112.05;34.25;;;;;;;1.93;100.00;98654.03;5091427;28;20020;-73
2021/12/31 00:55:05;;;;;;;89.30;31.08;;;;;;;1.94;100.00;98650.28;5090952;28;20130;-73
2021/12/31 00:57:30;;;;;;;106.85;32.97;;;;;;;1.88;100.00;98664.66;5091303;28;20036;-72
2021/12/31 00:59:56;;;;;;;79.40;33.13;;;;;;;1.90;100.00;98664.44;5091386;28;20024;-74
2021/12/31 01:02:24;;;;;;;99.43;34.55;;;;;;;1.91;100.00;98677.69;5090793;28;20016;-72
2021/12/31 01:04:50;;;;;;;122.35;35.83;;;;;;;1.74;100.00;98673.91;5090273;28;20024;-73
2021/12/31 01:07:15;;;;;;;80.35;32.40;;;;;;;1.82;100.00;98676.31;5090839;28;20491;-74
2021/12/31 01:09:41;;;;;;;113.70;34.47;;;;;;;1.70;100.00;98666.47;5090787;28;20031;-75
2021/12/31 01:12:09;;;;;;;88.05;33.83;;;;;;;1.73;100.00;98674.97;5091157;28;20020;-74
2021/12/31 01:14:50;;;;;;;95.25;33.08;;;;;;;1.70;100.00;98672.69;5091159;28;20094;-74
2021/12/31 01:17:21;;;;;;;118.38;33.83;;;;;;;1.77;100.00;98680.75;5091086;28;20078;-73
2021/12/31 01:19:46;;;;;;;120.60;34.65;;;;;;;1.72;100.00;98684.13;5090977;28;20106;-74
2021/12/31 01:22:29;;;;;;;90.40;32.90;;;;;;;1.66;100.00;98668.78;5090906;28;20024;-74
2021/12/31 01:24:54;;;;;;;150.77;34.78;;;;;;;1.75;100.00;98672.88;5090866;28;20092;-74
2021/12/31 01:27:20;;;;;;;154.98;34.28;;;;;;;1.67;100.00;98653.44;5091197;28;20024;-74
2021/12/31 01:29:47;;;;;;;255.82;39.28;;;;;;;1.74;100.00;98662.31;5090730;28;20023;-74
2021/12/31 01:32:12;;;;;;;286.63;39.38;;;;;;;1.85;100.00;98670.50;5091402;28;20381;-76
2021/12/31 01:34:39;;;;;;;110.55;32.90;;;;;;;1.88;100.00;98674.63;5091637;28;20031;-76
2021/12/31 01:37:05;;;;;;;100.15;31.10;;;;;;;1.98;100.00;98674.94;5092342;28;20530;-77
2021/12/31 01:39:30;;;;;;;126.45;31.52;;;;;;;1.99;100.00;98676.59;5097386;28;20111;-78
2021/12/31 01:41:58;;;;;;;150.55;32.28;;;;;;;1.95;100.00;98678.91;5093086;28;20019;-75
2021/12/31 01:44:35;;;;;;;110.55;32.15;;;;;;;1.94;100.00;98679.13;5091048;28;20639;-75
2021/12/31 01:47:08;;;;;;;241.77;35.63;;;;;;;1.91;100.00;98679.59;5090940;28;20449;-76
2021/12/31 01:49:37;;;;;;;289.08;40.83;;;;;;;1.76;100.00;98674.50;5090982;28;20093;-75
2021/12/31 01:52:04;;;;;;;182.55;37.03;;;;;;;1.65;100.00;98677.94;5091345;28;20031;-75
2021/12/31 01:54:30;;;;;;;166.65;35.88;;;;;;;1.60;100.00;98685.84;5094540;28;20107;-75
2021/12/31 01:56:58;;;;;;;175.38;39.28;;;;;;;1.50;100.00;98672.06;5093067;28;20060;-76
2021/12/31 01:59:24;;;;;;;301.05;46.75;;;;;;;1.51;100.00;98676.38;5091238;28;20012;-75
2021/12/31 02:01:50;;;;;;;360.67;48.13;;;;;;;1.62;100.00;98662.22;5091119;28;20103;-74
2021/12/31 02:04:16;;;;;;;273.95;44.97;;;;;;;1.67;100.00;98672.31;5090550;28;20099;-75
2021/12/31 02:06:41;;;;;;;356.58;50.10;;;;;;;1.71;100.00;98673.53;5089450;28;20032;-75
2021/12/31 02:09:07;;;;;;;417.05;51.22;;;;;;;1.67;100.00;98675.84;5090905;28;20034;-75
2021/12/31 02:11:32;;;;;;;232.27;40.75;;;;;;;1.88;100.00;98672.75;5090499;28;20118;-75
2021/12/31 02:13:58;;;;;;;198.52;41.45;;;;;;;1.86;100.00;98668.63;5090604;28;20032;-75
2021/12/31 02:16:24;;;;;;;445.70;52.58;;;;;;;1.93;100.00;98681.00;5092349;28;20027;-75
2021/12/31 02:18:50;;;;;;;199.48;37.38;;;;;;;1.97;100.00;98682.19;5094877;28;20028;-76
2021/12/31 02:21:16;;;;;;;367.98;48.33;;;;;;;1.96;100.00;98679.72;5094692;28;20032;-77
2021/12/31 02:23:45;;;;;;;249.25;39.97;;;;;;;2.07;100.00;98681.69;5095215;28;20057;-73
2021/12/31 02:26:11;;;;;;;153.40;37.55;;;;;;;2.00;100.00;98665.59;5093017;28;20059;-75
2021/12/31 02:28:38;;;;;;;177.10;36.50;;;;;;;2.06;100.00;98671.97;5094644;28;20028;-74
2021/12/31 02:31:04;;;;;;;363.63;40.72;;;;;;;2.01;100.00;98680.72;5094173;28;20027;-76
2021/12/31 02:33:31;;;;;;;94.38;32.60;;;;;;;2.03;100.00;98675.94;5093955;28;20042;-76
2021/12/31 02:35:58;;;;;;;360.92;47.28;;;;;;;1.97;100.00;98676.78;5093459;28;20028;-76
2021/12/31 02:38:24;;;;;;;125.13;34.50;;;;;;;2.12;100.00;98685.38;5093685;28;20373;-76
2021/12/31 02:40:49;;;;;;;188.48;37.20;;;;;;;2.09;100.00;98680.44;5094465;28;20035;-76
2021/12/31 02:43:15;;;;;;;195.68;35.45;;;;;;;2.12;100.00;98684.56;5094163;28;20032;-76
2021/12/31 02:45:42;;;;;;;127.25;32.80;;;;;;;2.01;100.00;98694.19;5093749;28;20483;-75
2021/12/31 02:48:08;;;;;;;152.90;33.28;;;;;;;2.05;100.00;98686.47;5092133;28;20107;-76
2021/12/31 02:50:39;;;;;;;130.10;35.72;;;;;;;1.91;100.00;98684.97;5093149;28;20075;-75
2021/12/31 02:53:11;;;;;;;130.65;38.70;;;;;;;1.84;100.00;98690.44;5093457;28;20438;-74
2021/12/31 02:55:38;;;;;;;106.50;34.35;;;;;;;1.90;100.00;98692.25;5092838;28;20044;-75
2021/12/31 02:58:05;;;;;;;96.47;34.08;;;;;;;1.87;100.00;98695.38;5092504;28;20361;-75
2021/12/31 03:00:32;;;;;;;76.72;32.35;;;;;;;1.91;100.00;98693.88;5093455;28;20020;-76
2021/12/31 03:03:01;;;;;;;148.00;35.30;;;;;;;1.74;100.00;98687.41;5093605;28;20484;-75
2021/12/31 03:05:28;;;;;;;95.20;31.55;;;;;;;1.66;100.00;98682.28;5093827;28;20472;-75
2021/12/31 03:07:55;;;;;;;85.07;30.38;;;;;;;1.62;100.00;98678.38;5093420;28;20028;-75
2021/12/31 03:10:22;;;;;;;106.85;35.45;;;;;;;1.62;100.00;98689.16;5093022;28;20028;-75
2021/12/31 03:12:51;;;;;;;84.15;34.30;;;;;;;1.60;100.00;98691.25;5093135;28;20111;-75
2021/12/31 03:15:17;;;;;;;100.38;33.67;;;;;;;1.57;100.00;98681.72;5092890;28;20152;-75
2021/12/31 03:17:44;;;;;;;107.20;33.75;;;;;;;1.65;100.00;98683.34;5092939;28;20413;-74
2021/12/31 03:20:24;;;;;;;77.43;31.67;;;;;;;1.80;100.00;98686.50;5091767;28;20039;-75
2021/12/31 03:22:50;;;;;;;136.18;31.92;;;;;;;1.81;100.00;98681.94;5092801;28;20080;-75
2021/12/31 03:25:15;;;;;;;75.65;27.50;;;;;;;1.90;100.00;98691.41;5092223;28;20040;-75
2021/12/31 03:27:41;;;;;;;77.85;24.83;;;;;;;1.84;100.00;98693.13;5092587;28;20024;-75
2021/12/31 03:30:06;;;;;;;101.50;28.05;;;;;;;1.73;100.00;98680.34;5092773;28;20027;-74
2021/12/31 03:32:32;;;;;;;89.95;25.63;;;;;;;1.75;100.00;98683.66;5092826;28;20031;-74
2021/12/31 03:34:57;;;;;;;109.57;28.13;;;;;;;1.61;100.00;98682.13;5093030;28;20369;-76
2021/12/31 03:37:23;;;;;;;118.55;27.90;;;;;;;1.58;100.00;98687.94;5093458;28;20027;-74
2021/12/31 03:39:48;;;;;;;89.15;26.80;;;;;;;1.63;100.00;98685.41;5092574;28;20028;-76
2021/12/31 03:42:16;;;;;;;76.68;26.42;;;;;;;1.72;100.00;98683.28;5092525;28;20024;-76
2021/12/31 03:44:42;;;;;;;108.55;28.92;;;;;;;1.65;100.00;98683.34;5092345;28;20031;-75
2021/12/31 03:47:07;;;;;;;127.80;28.02;;;;;;;1.60;100.00;98681.28;5092154;28;20027;-74
2021/12/31 03:49:33;;;;;;;86.97;26.75;;;;;;;1.67;100.00;98681.22;5092731;28;20032;-76
2021/12/31 03:51:58;;;;;;;82.90;26.98;;;;;;;1.61;100.00;98682.13;5092531;28;20358;-74
2021/12/31 03:54:24;;;;;;;80.82;24.65;;;;;;;1.66;100.00;98684.97;5091892;28;20048;-76
2021/12/31 03:56:49;;;;;;;69.45;26.20;;;;;;;1.67;100.00;98689.31;5092392;28;20056;-74
2021/12/31 03:59:14;;;;;;;118.95;28.35;;;;;;;1.68;100.00;98692.84;5101522;28;20065;-78
2021/12/31 04:01:40;;;;;;;66.28;25.17;;;;;;;1.70;100.00;98694.28;5093843;28;20047;-77
2021/12/31 04:04:07;;;;;;;92.93;25.73;;;;;;;1.73;100.00;98696.53;5092605;28;20035;-77
2021/12/31 04:06:33;;;;;;;52.85;23.70;;;;;;;1.75;100.00;98705.25;5097258;28;20028;-79
2021/12/31 04:08:59;;;;;;;66.65;25.90;;;;;;;1.62;100.00;98705.34;5095257;28;20035;-75
2021/12/31 04:11:24;;;;;;;78.10;26.10;;;;;;;1.56;100.00;98696.28;5092275;28;20361;-74
2021/12/31 04:13:50;;;;;;;112.45;27.33;;;;;;;1.32;100.00;98683.56;5091926;28;20088;-73
2021/12/31 04:16:15;;;;;;;98.20;28.70;;;;;;;1.32;100.00;98693.53;5092013;28;20081;-73
2021/12/31 04:18:40;;;;;;;85.43;28.02;;;;;;;1.30;100.00;98698.31;5091964;28;20036;-74
2021/12/31 04:21:06;;;;;;;67.75;26.73;;;;;;;1.39;100.00;98697.00;5091935;28;20495;-73
2021/12/31 04:23:35;;;;;;;103.95;30.83;;;;;;;1.35;100.00;98701.16;5091793;28;20038;-75
2021/12/31 04:26:01;;;;;;;159.60;31.48;;;;;;;1.38;100.00;98693.47;5091613;28;20024;-75
2021/12/31 04:28:28;;;;;;;89.32;29.63;;;;;;;1.33;100.00;98689.78;5091929;28;20060;-77
2021/12/31 04:30:54;;;;;;;77.10;28.20;;;;;;;1.38;100.00;98709.66;5092220;28;20086;-75
2021/12/31 04:33:19;;;;;;;81.95;28.02;;;;;;;1.41;100.00;98708.41;5091669;28;20031;-76
2021/12/31 04:35:45;;;;;;;80.50;27.00;;;;;;;1.44;100.00;98697.19;5091645;28;20032;-76
2021/12/31 04:38:11;;;;;;;83.45;28.23;;;;;;;1.50;100.00;98696.31;5090621;28;20434;-74
2021/12/31 04:40:36;;;;;;;61.55;26.10;;;;;;;1.51;100.00;98697.94;5091381;28;20186;-76
2021/12/31 04:43:02;;;;;;;81.82;25.95;;;;;;;1.50;100.00;98704.41;5091175;28;20028;-76
2021/12/31 04:45:27;;;;;;;73.93;24.10;;;;;;;1.50;100.00;98709.78;5090897;28;20020;-75
2021/12/31 04:47:52;;;;;;;61.33;24.10;;;;;;;1.50;100.00;98707.91;5091807;28;20445;-74
2021/12/31 04:50:18;;;;;;;67.78;26.10;;;;;;;1.47;100.00;98711.03;5090590;28;20050;-74
2021/12/31 04:52:44;;;;;;;113.32;26.80;;;;;;;1.39;100.00;98710.47;5102060;28;20020;-76
2021/12/31 04:55:10;;;;;;;153.70;28.70;;;;;;;1.38;100.00;98717.72;5090873;28;20492;-76
2021/12/31 04:57:36;;;;;;;140.55;29.75;;;;;;;1.38;100.00;98719.63;5106294;28;20523;-75
2021/12/31 05:00:04;;;;;;;307.98;37.95;;;;;;;1.42;100.00;98726.22;5111910;28;20089;-74
2021/12/31 05:02:29;;;;;;;147.00;28.80;;;;;;;1.48;100.00;98717.25;5111384;28;20099;-76
2021/12/31 05:04:54;;;;;;;298.02;40.40;;;;;;;1.47;100.00;98718.31;5109851;28;20122;-74
2021/12/31 05:07:20;;;;;;;109.50;25.63;;;;;;;1.55;100.00;98726.13;5111087;28;20031;-74
2021/12/31 05:09:45;;;;;;;138.98;28.45;;;;;;;1.52;100.00;98715.78;5110871;28;20031;-77
2021/12/31 05:12:15;;;;;;;149.13;27.83;;;;;;;1.52;100.00;98716.63;5111334;28;20487;-75
2021/12/31 05:14:42;;;;;;;110.82;26.75;;;;;;;1.42;100.00;98720.81;5111053;28;20036;-75
2021/12/31 05:17:07;;;;;;;130.18;28.92;;;;;;;1.49;100.00;98716.22;5110934;28;20023;-75
2021/12/31 05:19:33;;;;;;;58.58;26.52;;;;;;;1.49;100.00;98722.44;5110868;28;20015;-75
2021/12/31 05:21:58;;;;;;;112.88;25.48;;;;;;;1.38;100.00;98715.03;5110940;28;20027;-74
2021/12/31 05:24:23;;;;;;;90.75;26.92;;;;;;;1.45;100.00;98723.09;5109629;28;20058;-76
2021/12/31 05:26:49;;;;;;;110.65;27.15;;;;;;;1.33;100.00;98722.13;5111816;28;20094;-76
2021/12/31 05:29:14;;;;;;;155.32;29.90;;;;;;;1.32;100.00;98725.84;5111158;28;20107;-75
2021/12/31 05:31:39;;;;;;;244.60;34.35;;;;;;;1.30;100.00;98727.97;5110802;28;20031;-74
2021/12/31 05:34:05;;;;;;;127.63;26.88;;;;;;;1.07;100.00;98702.41;5110751;28;20059;-73
2021/12/31 05:36:30;;;;;;;94.53;27.80;;;;;;;1.23;100.00;98717.22;5110856;28;20059;-76
2021/12/31 05:38:56;;;;;;;232.73;31.75;;;;;;;1.23;100.00;98717.22;5110623;28;20031;-76
2021/12/31 05:41:21;;;;;;;175.77;31.88;;;;;;;1.24;100.00;98718.88;5110768;28;20020;-75
2021/12/31 05:43:46;;;;;;;116.75;26.42;;;;;;;1.21;100.00;98724.69;5110778;28;20028;-75
2021/12/31 05:46:12;;;;;;;143.95;27.35;;;;;;;1.31;100.00;98718.84;5110638;28;20434;-75
2021/12/31 05:48:37;;;;;;;237.95;31.67;;;;;;;1.26;100.00;98721.34;5112066;28;20051;-76
2021/12/31 05:51:03;;;;;;;228.88;32.67;;;;;;;1.27;100.00;98728.38;5120412;28;20024;-76
2021/12/31 05:53:29;;;;;;;96.38;28.17;;;;;;;1.25;100.00;98717.84;5114656;28;20031;-75
2021/12/31 05:55:55;;;;;;;145.10;31.90;;;;;;;1.28;100.00;98725.50;5114807;28;20043;-75
2021/12/31 05:58:21;;;;;;;189.10;32.80;;;;;;;1.35;100.00;98726.25;5115031;28;20559;-75
2021/12/31 06:00:46;;;;;;;131.55;31.13;;;;;;;1.37;100.00;98726.06;5113486;28;20095;-75
2021/12/31 06:03:12;;;;;;;72.38;27.48;;;;;;;1.29;100.00;98737.06;5114479;28;20054;-74
2021/12/31 06:05:37;;;;;;;137.98;29.13;;;;;;;1.34;100.00;98748.88;5114182;28;20032;-75
2021/12/31 06:08:03;;;;;;;79.93;26.90;;;;;;;1.40;100.00;98752.56;5114324;28;20026;-75
2021/12/31 06:10:28;;;;;;;111.40;28.75;;;;;;;1.37;100.00;98750.31;5114693;28;20015;-75
2021/12/31 06:12:58;;;;;;;93.30;27.17;;;;;;;1.33;100.00;98744.53;5114826;28;20031;-78
2021/12/31 06:15:25;;;;;;;204.45;30.70;;;;;;;1.30;100.00;98747.66;5115131;28;20444;-75
2021/12/31 06:17:51;;;;;;;99.13;26.55;;;;;;;1.27;100.00;98744.56;5119813;27;20020;-77
2021/12/31 06:20:17;;;;;;;100.20;28.35;;;;;;;1.22;100.00;98742.53;5120502;28;20016;-75
2021/12/31 06:22:43;;;;;;;119.57;30.08;;;;;;;1.18;100.00;98735.09;5114964;28;20023;-74
2021/12/31 06:25:08;;;;;;;47.35;23.92;;;;;;;1.19;100.00;98736.75;5114329;28;20040;-75
2021/12/31 06:27:34;;;;;;;65.82;24.42;;;;;;;1.31;100.00;98753.88;5114282;28;20046;-77
2021/12/31 06:29:59;;;;;;;121.30;27.88;;;;;;;1.37;100.00;98750.31;5114318;27;20111;-75
2021/12/31 06:32:25;;;;;;;58.38;23.33;;;;;;;1.44;100.00;98743.00;5113915;28;20045;-76
2021/12/31 06:34:50;;;;;;;90.93;25.38;;;;;;;1.38;100.00;98747.38;5113982;28;20438;-74
2021/12/31 06:37:16;;;;;;;94.18;25.67;;;;;;;1.24;100.00;98750.38;5113732;28;20031;-75
2021/12/31 06:39:43;;;;;;;84.65;25.45;;;;;;;1.20;100.00;98751.84;5113754;28;20023;-75
2021/12/31 06:42:08;;;;;;;83.75;27.35;;;;;;;1.22;100.00;98756.00;5114415;27;20031;-75
2021/12/31 06:44:36;;;;;;;63.17;26.13;;;;;;;1.13;100.00;98757.25;5112859;28;20032;-75
2021/12/31 06:47:03;;;;;;;120.07;31.55;;;;;;;1.12;100.00;98768.28;5093368;28;20031;-74
2021/12/31 06:49:28;;;;;;;139.98;31.40;;;;;;;1.23;100.00;98764.88;5093410;28;20024;-73
2021/12/31 06:51:56;;;;;;;120.95;29.67;;;;;;;1.24;100.00;98761.97;5093149;28;20066;-74
2021/12/31 06:54:22;;;;;;;63.42;25.42;;;;;;;1.32;100.00;98764.41;5093216;28;20143;-74
2021/12/31 06:56:47;;;;;;;107.22;26.60;;;;;;;1.36;100.00;98764.81;5093321;28;20031;-74
2021/12/31 06:59:12;;;;;;;87.35;27.33;;;;;;;1.15;100.00;98713.97;5093281;28;20048;-73
2021/12/31 07:01:38;;;;;;;133.52;26.95;;;;;;;1.43;100.00;98755.66;5092027;28;20938;-74
2021/12/31 07:04:03;;;;;;;89.20;25.90;;;;;;;1.41;100.00;98762.31;5092912;28;20050;-74
2021/12/31 07:06:29;;;;;;;103.20;27.40;;;;;;;1.50;100.00;98761.00;5091387;28;20056;-75
2021/12/31 07:08:54;;;;;;;165.48;32.50;;;;;;;1.45;100.00;98760.81;5092922;28;20028;-76
2021/12/31 07:11:22;;;;;;;93.70;26.05;;;;;;;1.52;100.00;98758.91;5092917;28;20490;-75
2021/12/31 07:13:51;;;;;;;108.75;27.40;;;;;;;1.55;100.00;98770.09;5093427;28;20073;-76
2021/12/31 07:16:17;;;;;;;77.40;25.30;;;;;;;1.56;100.00;98766.34;5093987;28;20031;-75
2021/12/31 07:18:43;;;;;;;83.93;26.92;;;;;;;1.53;100.00;98772.19;5091391;28;20602;-74
2021/12/31 07:21:08;;;;;;;61.88;24.70;;;;;;;1.39;100.00;98772.47;5093480;28;20133;-74
2021/12/31 07:23:34;;;;;;;80.45;25.20;;;;;;;1.37;100.00;98771.88;5092876;28;20032;-75
2021/12/31 07:25:59;;;;;;;66.20;23.92;;;;;;;1.50;100.00;98771.78;5092420;28;20138;-76
2021/12/31 07:28:24;;;;;;;119.65;25.30;;;;;;;1.49;100.00;98770.97;5092744;28;20051;-75
2021/12/31 07:30:50;;;;;;;59.33;22.40;;;;;;;1.45;100.00;98780.50;5092620;28;20024;-75
2021/12/31 07:33:18;;;;;;;135.43;24.25;;;;;;;1.39;100.00;98781.38;5092406;28;20080;-74
2021/12/31 07:35:45;;;;;;;121.07;26.35;;;;;;;1.45;100.00;98782.38;5092431;28;20137;-74
2021/12/31 07:38:19;;;;;;;103.07;25.58;;;;;;;1.48;100.00;98788.16;5092398;28;20031;-75
2021/12/31 07:40:45;;;;;;;116.50;25.27;;;;;;;1.51;100.00;98792.28;5095391;28;20032;-75
2021/12/31 07:43:11;;;;;;;74.65;22.95;;;;;;;1.51;100.00;98781.50;5096160;28;20028;-74
2021/12/31 07:45:37;;;;;;;65.00;21.65;;;;;;;1.63;100.00;98788.69;5101689;28;20357;-74
2021/12/31 07:48:03;;;;;;;126.15;25.25;;;;;;;1.68;100.00;98790.75;5112302;28;20024;-74
2021/12/31 07:50:29;;;;;;;110.20;22.85;;;;;;;1.70;100.00;98794.03;5112596;28;20061;-73
2021/12/31 07:52:55;;;;;;;94.80;22.10;;;;;;;1.66;100.00;98797.41;5112407;28;20043;-73
2021/12/31 07:55:20;;;;;;;104.97;22.40;;;;;;;1.55;100.00;98799.72;5112000;28;20118;-73
2021/12/31 07:57:46;;;;;;;66.05;21.65;;;;;;;1.61;100.00;98795.34;5113320;28;20031;-75
2021/12/31 08:00:12;;;;;;;59.28;22.63;;;;;;;1.61;100.00;98800.72;5112830;28;20008;-75
2021/12/31 08:02:38;;;;;;;111.55;24.00;;;;;;;1.63;100.00;98804.03;5112303;28;20038;-75
2021/12/31 08:05:04;;;;;;;93.65;23.50;;;;;;;1.68;100.00;98796.13;5112368;28;20031;-74
2021/12/31 08:07:29;;;;;;;86.55;23.17;;;;;;;1.60;100.00;98804.47;5111887;28;20480;-73
2021/12/31 08:09:54;;;;;;;78.38;23.90;;;;;;;1.59;100.00;98790.19;5112643;28;20059;-74
2021/12/31 08:12:20;;;;;;;81.80;23.85;;;;;;;1.74;100.00;98800.66;5113410;28;20020;-74
2021/12/31 08:14:45;;;;;;;171.40;26.60;;;;;;;1.72;100.00;98786.56;5111201;28;20019;-74
2021/12/31 08:17:11;;;;;;;71.95;23.92;;;;;;;1.86;100.00;98798.91;5111750;28;20026;-74
2021/12/31 08:19:36;;;;;;;139.10;24.60;;;;;;;1.98;100.00;98796.31;5112359;28;20475;-74
2021/12/31 08:22:02;;;;;;;177.07;24.98;;;;;;;1.89;100.00;98795.75;5111974;28;20046;-75
2021/12/31 08:24:27;;;;;;;181.68;28.40;;;;;;;1.89;100.00;98787.66;5112001;28;20380;-73
2021/12/31 08:26:53;;;;;;;118.00;25.55;;;;;;;1.86;100.00;98793.50;5112985;28;20073;-75
2021/12/31 08:29:18;;;;;;;151.90;23.85;;;;;;;1.96;100.00;98796.53;5124391;28;20047;-77
2021/12/31 08:31:44;;;;;;;98.68;23.88;;;;;;;2.00;100.00;98786.97;5119946;28;20317;-78
2021/12/31 08:34:11;;;;;;;70.00;23.52;;;;;;;2.13;100.00;98794.94;5113272;28;20031;-75
2021/12/31 08:36:37;;;;;;;85.25;23.98;;;;;;;2.08;100.00;98789.38;5112068;28;20027;-78
2021/12/31 08:39:05;;;;;;;156.90;25.00;;;;;;;1.98;100.00;98786.34;5106795;28;20536;-75
2021/12/31 08:41:30;;;;;;;214.27;27.05;;;;;;;1.61;100.00;98780.00;5106440;28;20020;-76
2021/12/31 08:43:56;;;;;;;233.27;26.52;;;;;;;1.71;100.00;98781.38;5111041;28;20038;-76
2021/12/31 08:46:23;;;;;;;85.35;25.67;;;;;;;1.78;100.00;98776.78;5110790;28;20388;-72
2021/12/31 08:48:49;;;;;;;111.35;25.50;;;;;;;1.99;100.00;98782.63;5113608;28;20035;-77
2021/12/31 08:51:14;;;;;;;218.27;28.70;;;;;;;1.99;100.00;98785.31;5112008;28;20396;-74
2021/12/31 08:53:40;;;;;;;83.60;25.45;;;;;;;1.94;100.00;98793.22;5110541;28;20074;-75
2021/12/31 08:56:06;;;;;;;224.20;29.63;;;;;;;1.89;100.00;98784.97;5108792;28;20035;-77
2021/12/31 08:58:31;;;;;;;93.60;26.13;;;;;;;1.86;100.00;98781.88;5101517;28;20082;-77
2021/12/31 09:00:56;;;;;;;125.97;28.75;;;;;;;1.86;100.00;98793.50;5094495;28;20035;-75
2021/12/31 09:03:22;;;;;;;214.32;28.50;;;;;;;1.81;100.00;98790.66;5108596;28;20008;-74
2021/12/31 09:05:47;;;;;;;92.07;28.02;;;;;;;1.86;100.00;98782.72;5110909;28;20380;-73
2021/12/31 09:08:13;;;;;;;95.55;28.67;;;;;;;1.93;100.00;98791.59;5109966;28;20019;-74
2021/12/31 09:10:38;;;;;;;71.38;28.33;;;;;;;2.07;100.00;98790.41;5109197;28;20028;-74
2021/12/31 09:13:03;;;;;;;130.57;28.40;;;;;;;1.96;100.00;98799.25;5109418;28;20106;-73
2021/12/31 09:15:29;;;;;;;128.82;28.55;;;;;;;2.04;100.00;98796.25;5105084;28;20636;-73
2021/12/31 09:17:55;;;;;;;113.75;27.23;;;;;;;2.26;100.00;98801.25;5109518;28;20015;-74
2021/12/31 09:20:21;;;;;;;88.07;26.77;;;;;;;2.35;100.00;98799.97;5109125;28;20024;-74
2021/12/31 09:22:46;;;;;;;140.60;28.67;;;;;;;2.44;100.00;98802.16;5109221;28;20085;-73
2021/12/31 09:25:12;;;;;;;72.28;27.52;;;;;;;2.47;100.00;98808.97;5111012;28;20118;-74
2021/12/31 09:27:38;;;;;;;105.28;25.77;;;;;;;2.40;100.00;98805.50;5114040;28;20038;-72
2021/12/31 09:30:04;;;;;;;107.70;26.48;;;;;;;2.26;100.00;98804.78;5110732;28;20019;-74
2021/12/31 09:32:29;;;;;;;102.95;28.40;;;;;;;2.27;100.00;98805.63;5114684;28;20379;-73
2021/12/31 09:34:54;;;;;;;129.68;30.45;;;;;;;2.15;100.00;98795.56;5115303;28;20045;-74
2021/12/31 09:37:20;;;;;;;132.02;29.13;;;;;;;2.29;100.00;98793.56;5112298;28;20020;-74
2021/12/31 09:39:46;;;;;;;68.82;29.48;;;;;;;2.35;100.00;98786.47;5109063;28;20486;-74
2021/12/31 09:42:12;;;;;;;113.85;28.20;;;;;;;2.49;100.00;98787.97;5108104;28;20057;-75
2021/12/31 09:44:38;;;;;;;71.47;27.52;;;;;;;2.67;100.00;98801.50;5112872;28;20024;-74
2021/12/31 09:47:10;;;;;;;112.45;27.98;;;;;;;2.62;100.00;98796.78;5108709;28;20030;-76
2021/12/31 09:49:39;;;;;;;136.57;32.10;;;;;;;2.42;100.00;98792.59;5111818;28;20361;-74
2021/12/31 09:52:08;;;;;;;81.10;31.77;;;;;;;2.61;100.00;98792.41;5110184;28;20757;-75
2021/12/31 09:54:33;;;;;;;173.38;31.50;;;;;;;2.51;100.00;98794.78;5112773;28;20081;-75
2021/12/31 09:57:00;;;;;;;141.38;31.92;;;;;;;2.20;100.00;98788.66;5112854;28;20016;-75
2021/12/31 09:59:27;;;;;;;206.70;32.13;;;;;;;2.38;100.00;98791.41;5113173;28;20036;-72
2021/12/31 10:01:52;;;;;;;116.07;29.63;;;;;;;2.29;100.00;98792.75;5113818;28;20043;-75
2021/12/31 10:04:18;;;;;;;188.52;32.70;;;;;;;2.48;100.00;98780.91;5113486;28;20019;-74
2021/12/31 10:07:06;;;;;;;98.97;33.05;;;;;;;2.55;100.00;98784.38;5110108;28;20019;-76
2021/12/31 10:09:33;;;;;;;110.70;34.65;;;;;;;2.56;100.00;98788.75;5107067;28;20407;-75
2021/12/31 10:11:58;;;;;;;127.78;33.53;;;;;;;2.70;100.00;98780.25;5101710;28;20032;-76
2021/12/31 10:14:39;;;;;;;167.95;33.47;;;;;;;2.76;100.00;98775.84;5113853;28;20030;-75
2021/12/31 10:17:05;;;;;;;135.98;32.67;;;;;;;2.76;100.00;98773.13;5110535;28;20031;-74
2021/12/31 10:19:31;;;;;;;84.55;33.15;;;;;;;2.82;100.00;98782.22;5113768;28;20012;-74
2021/12/31 10:21:56;;;;;;;109.20;36.08;;;;;;;2.91;100.00;98773.59;5113796;28;20027;-75
2021/12/31 10:24:32;;;;;;;110.70;32.42;;;;;;;2.88;100.00;98782.13;5111983;28;20024;-74
2021/12/31 10:27:01;;;;;;;105.75;33.00;;;;;;;2.87;100.00;98766.16;5113823;28;20479;-76
2021/12/31 10:29:28;;;;;;;159.85;33.53;;;;;;;3.00;100.00;98766.84;5113996;28;20070;-79
2021/12/31 10:31:55;;;;;;;142.38;36.40;;;;;;;3.00;100.00;98758.72;5113237;28;20038;-73
2021/12/31 10:34:32;;;;;;;139.45;34.28;;;;;;;2.83;100.00;98763.09;5113243;28;20068;-76
2021/12/31 10:37:00;;;;;;;112.13;34.30;;;;;;;2.66;100.00;98756.66;5112680;28;20566;-76
2021/12/31 10:39:27;;;;;;;169.40;38.58;;;;;;;2.69;100.00;98753.50;5116159;28;20127;-79
2021/12/31 10:42:10;;;;;;;134.45;39.30;;;;;;;2.64;100.00;98754.16;5119909;28;20020;-81
2021/12/31 10:44:47;;;;;;;108.47;35.22;;;;;;;2.80;100.00;98746.50;5119371;28;20108;-82
2021/12/31 10:47:23;;;;;;;116.32;37.33;;;;;;;3.03;100.00;98752.03;5117689;28;20081;-77
2021/12/31 10:50:00;;;;;;;99.35;37.67;;;;;;;3.36;100.00;98746.19;5117870;28;20053;-79
2021/12/31 10:52:33;;;;;;;99.03;36.70;;;;;;;3.42;100.00;98745.25;5118703;28;20028;-76
2021/12/31 10:55:18;;;;;;;79.13;33.47;;;;;;;3.46;100.00;98739.19;5118873;28;20047;-74
2021/12/31 10:57:46;;;;;;;120.30;37.75;;;;;;;3.43;100.00;98722.59;5093778;28;20032;-76
2021/12/31 11:00:12;;;;;;;77.35;35.47;;;;;;;3.52;100.00;98721.19;5102823;28;20039;-78
2021/12/31 11:02:38;;;;;;;96.20;37.67;;;;;;;3.60;100.00;98721.69;5112050;28;20506;-74
2021/12/31 11:05:06;;;;;;;116.93;36.67;;;;;;;3.50;100.00;98721.44;5112038;28;20034;-74
2021/12/31 11:07:32;;;;;;;107.65;36.60;;;;;;;3.30;100.00;98720.06;5108913;28;20032;-74
2021/12/31 11:09:59;;;;;;;143.85;41.60;;;;;;;3.23;100.00;98715.59;5112655;28;20034;-74